sensor_id;sensor_type;location;lat;lon;timestamp;P1;durP1;ratioP1;P2;durP2;ratioP2
63008;SDS011;49099;28.428;-16.488;2023-05-07T00:00:02;11.82;;;2.40;;
63008;SDS011;49099;28.428;-16.488;2023-05-07T00:02:35;10.57;;;2.50;;
63008;SDS011;49099;28.428;-16.488;2023-05-07T00:05:03;12.45;;;2.53;;
63008;SDS011;49099;28.428;-16.488;2023-05-07T00:07:30;14.90;;;2.92;;
63008;SDS011;49099;28.428;-16.488;2023-05-07T00:09:57;14.07;;;2.50;;
63008;SDS011;49099;28.428;-16.488;2023-05-07T00:12:24;9.73;;;2.55;;
63008;SDS011;49099;28.428;-16.488;2023-05-07T00:14:51;11.90;;;2.40;;
63008;SDS011;49099;28.428;-16.488;2023-05-07T00:17:19;13.52;;;2.47;;
63008;SDS011;49099;28.428;-16.488;2023-05-07T00:19:46;14.23;;;2.67;;
63008;SDS011;49099;28.428;-16.488;2023-05-07T00:22:13;10.82;;;2.58;;
63008;SDS011;49099;28.428;-16.488;2023-05-07T00:24:40;10.57;;;2.50;;
63008;SDS011;49099;28.428;-16.488;2023-05-07T00:27:07;12.65;;;2.90;;
63008;SDS011;49099;28.428;-16.488;2023-05-07T00:29:34;13.10;;;2.95;;
63008;SDS011;49099;28.428;-16.488;2023-05-07T00:32:03;15.02;;;2.78;;
63008;SDS011;49099;28.428;-16.488;2023-05-07T00:34:30;15.88;;;4.10;;
63008;SDS011;49099;28.428;-16.488;2023-05-07T00:36:57;19.60;;;4.20;;
63008;SDS011;49099;28.428;-16.488;2023-05-07T00:39:24;15.23;;;3.58;;
63008;SDS011;49099;28.428;-16.488;2023-05-07T00:41:51;17.33;;;4.63;;
63008;SDS011;49099;28.428;-16.488;2023-05-07T00:44:18;15.02;;;4.25;;
63008;SDS011;49099;28.428;-16.488;2023-05-07T00:46:46;14.55;;;3.58;;
63008;SDS011;49099;28.428;-16.488;2023-05-07T00:49:17;15.77;;;3.55;;
63008;SDS011;49099;28.428;-16.488;2023-05-07T00:51:45;21.17;;;3.92;;
63008;SDS011;49099;28.428;-16.488;2023-05-07T00:54:12;16.73;;;3.85;;
63008;SDS011;49099;28.428;-16.488;2023-05-07T00:56:40;14.52;;;3.22;;
63008;SDS011;49099;28.428;-16.488;2023-05-07T00:59:07;14.27;;;3.10;;
63008;SDS011;49099;28.428;-16.488;2023-05-07T01:01:35;15.50;;;3.08;;
63008;SDS011;49099;28.428;-16.488;2023-05-07T01:04:03;15.50;;;3.25;;
63008;SDS011;49099;28.428;-16.488;2023-05-07T01:06:31;17.77;;;3.20;;
63008;SDS011;49099;28.428;-16.488;2023-05-07T01:09:00;13.10;;;3.03;;
63008;SDS011;49099;28.428;-16.488;2023-05-07T01:11:28;14.07;;;2.72;;
63008;SDS011;49099;28.428;-16.488;2023-05-07T01:13:55;14.07;;;2.97;;
63008;SDS011;49099;28.428;-16.488;2023-05-07T01:16:25;12.48;;;2.40;;
63008;SDS011;49099;28.428;-16.488;2023-05-07T01:18:53;12.48;;;2.67;;
63008;SDS011;49099;28.428;-16.488;2023-05-07T01:21:21;9.57;;;2.30;;
63008;SDS011;49099;28.428;-16.488;2023-05-07T01:23:53;13.38;;;2.85;;
63008;SDS011;49099;28.428;-16.488;2023-05-07T01:26:21;13.18;;;2.63;;
63008;SDS011;49099;28.428;-16.488;2023-05-07T01:28:50;9.18;;;2.35;;
63008;SDS011;49099;28.428;-16.488;2023-05-07T01:31:17;14.65;;;2.90;;
63008;SDS011;49099;28.428;-16.488;2023-05-07T01:33:44;17.08;;;3.30;;
63008;SDS011;49099;28.428;-16.488;2023-05-07T01:36:15;26.02;;;3.90;;
63008;SDS011;49099;28.428;-16.488;2023-05-07T01:38:44;19.17;;;3.72;;
63008;SDS011;49099;28.428;-16.488;2023-05-07T01:41:12;23.10;;;4.07;;
63008;SDS011;49099;28.428;-16.488;2023-05-07T01:43:40;12.57;;;3.72;;
63008;SDS011;49099;28.428;-16.488;2023-05-07T01:46:09;13.98;;;2.97;;
63008;SDS011;49099;28.428;-16.488;2023-05-07T01:48:37;20.73;;;3.70;;
63008;SDS011;49099;28.428;-16.488;2023-05-07T01:51:07;18.75;;;3.53;;
63008;SDS011;49099;28.428;-16.488;2023-05-07T01:53:35;13.38;;;2.95;;
63008;SDS011;49099;28.428;-16.488;2023-05-07T01:56:03;16.92;;;3.80;;
63008;SDS011;49099;28.428;-16.488;2023-05-07T01:58:31;16.55;;;3.60;;
63008;SDS011;49099;28.428;-16.488;2023-05-07T02:00:58;17.17;;;3.45;;
63008;SDS011;49099;28.428;-16.488;2023-05-07T02:03:25;18.65;;;4.10;;
63008;SDS011;49099;28.428;-16.488;2023-05-07T02:05:52;15.02;;;3.30;;
63008;SDS011;49099;28.428;-16.488;2023-05-07T02:08:20;21.80;;;4.40;;
63008;SDS011;49099;28.428;-16.488;2023-05-07T02:10:47;19.95;;;4.20;;
63008;SDS011;49099;28.428;-16.488;2023-05-07T02:13:14;19.70;;;4.00;;
63008;SDS011;49099;28.428;-16.488;2023-05-07T02:15:41;16.95;;;3.35;;
63008;SDS011;49099;28.428;-16.488;2023-05-07T02:18:08;17.10;;;3.50;;
63008;SDS011;49099;28.428;-16.488;2023-05-07T02:20:35;16.98;;;3.95;;
63008;SDS011;49099;28.428;-16.488;2023-05-07T02:23:02;17.85;;;3.60;;
63008;SDS011;49099;28.428;-16.488;2023-05-07T02:25:30;16.30;;;3.67;;
63008;SDS011;49099;28.428;-16.488;2023-05-07T02:27:57;12.98;;;3.10;;
63008;SDS011;49099;28.428;-16.488;2023-05-07T02:30:24;15.45;;;3.25;;
63008;SDS011;49099;28.428;-16.488;2023-05-07T02:32:52;17.40;;;3.47;;
63008;SDS011;49099;28.428;-16.488;2023-05-07T02:35:19;17.15;;;2.97;;
63008;SDS011;49099;28.428;-16.488;2023-05-07T02:37:46;16.00;;;2.72;;
63008;SDS011;49099;28.428;-16.488;2023-05-07T02:40:13;15.63;;;3.40;;
63008;SDS011;49099;28.428;-16.488;2023-05-07T02:42:40;15.20;;;3.10;;
63008;SDS011;49099;28.428;-16.488;2023-05-07T02:45:08;16.45;;;3.10;;
63008;SDS011;49099;28.428;-16.488;2023-05-07T02:47:35;14.27;;;3.38;;
63008;SDS011;49099;28.428;-16.488;2023-05-07T02:50:03;15.52;;;3.42;;
63008;SDS011;49099;28.428;-16.488;2023-05-07T02:52:30;12.80;;;3.03;;
63008;SDS011;49099;28.428;-16.488;2023-05-07T02:54:57;12.00;;;2.83;;
63008;SDS011;49099;28.428;-16.488;2023-05-07T02:57:24;14.45;;;2.90;;
63008;SDS011;49099;28.428;-16.488;2023-05-07T02:59:51;11.30;;;2.80;;
63008;SDS011;49099;28.428;-16.488;2023-05-07T03:02:19;13.65;;;2.80;;
63008;SDS011;49099;28.428;-16.488;2023-05-07T03:04:46;11.55;;;3.08;;
63008;SDS011;49099;28.428;-16.488;2023-05-07T03:07:13;13.32;;;2.72;;
63008;SDS011;49099;28.428;-16.488;2023-05-07T03:09:40;13.80;;;2.88;;
63008;SDS011;49099;28.428;-16.488;2023-05-07T03:12:08;12.13;;;2.90;;
63008;SDS011;49099;28.428;-16.488;2023-05-07T03:14:35;15.13;;;3.17;;
63008;SDS011;49099;28.428;-16.488;2023-05-07T03:17:02;14.75;;;2.72;;
63008;SDS011;49099;28.428;-16.488;2023-05-07T03:19:29;12.68;;;2.60;;
63008;SDS011;49099;28.428;-16.488;2023-05-07T03:21:57;10.73;;;2.38;;
63008;SDS011;49099;28.428;-16.488;2023-05-07T03:24:24;10.75;;;2.40;;
63008;SDS011;49099;28.428;-16.488;2023-05-07T03:26:51;11.05;;;2.50;;
63008;SDS011;49099;28.428;-16.488;2023-05-07T03:29:18;10.13;;;2.72;;
63008;SDS011;49099;28.428;-16.488;2023-05-07T03:31:46;13.68;;;2.50;;
63008;SDS011;49099;28.428;-16.488;2023-05-07T03:34:13;12.27;;;2.50;;
63008;SDS011;49099;28.428;-16.488;2023-05-07T03:36:41;11.30;;;2.38;;
63008;SDS011;49099;28.428;-16.488;2023-05-07T03:39:08;7.80;;;2.17;;
63008;SDS011;49099;28.428;-16.488;2023-05-07T03:41:35;11.25;;;2.47;;
63008;SDS011;49099;28.428;-16.488;2023-05-07T03:44:02;13.43;;;2.80;;
63008;SDS011;49099;28.428;-16.488;2023-05-07T03:46:29;7.70;;;2.25;;
63008;SDS011;49099;28.428;-16.488;2023-05-07T03:48:56;9.75;;;2.65;;
63008;SDS011;49099;28.428;-16.488;2023-05-07T03:51:24;9.60;;;2.80;;
63008;SDS011;49099;28.428;-16.488;2023-05-07T03:53:52;13.27;;;3.13;;
63008;SDS011;49099;28.428;-16.488;2023-05-07T03:56:19;12.23;;;2.58;;
63008;SDS011;49099;28.428;-16.488;2023-05-07T03:58:47;14.75;;;2.90;;
63008;SDS011;49099;28.428;-16.488;2023-05-07T04:01:14;13.50;;;2.58;;
63008;SDS011;49099;28.428;-16.488;2023-05-07T04:03:41;14.48;;;2.55;;
63008;SDS011;49099;28.428;-16.488;2023-05-07T04:06:09;9.15;;;2.40;;
63008;SDS011;49099;28.428;-16.488;2023-05-07T04:08:37;13.25;;;3.03;;
63008;SDS011;49099;28.428;-16.488;2023-05-07T04:11:04;11.40;;;2.70;;
63008;SDS011;49099;28.428;-16.488;2023-05-07T04:13:31;12.63;;;2.88;;
63008;SDS011;49099;28.428;-16.488;2023-05-07T04:15:58;10.15;;;2.40;;
63008;SDS011;49099;28.428;-16.488;2023-05-07T04:18:25;9.23;;;2.40;;
63008;SDS011;49099;28.428;-16.488;2023-05-07T04:20:52;10.43;;;2.40;;
63008;SDS011;49099;28.428;-16.488;2023-05-07T04:23:20;10.85;;;2.47;;
63008;SDS011;49099;28.428;-16.488;2023-05-07T04:25:47;8.50;;;2.20;;
63008;SDS011;49099;28.428;-16.488;2023-05-07T04:28:14;7.85;;;2.00;;
63008;SDS011;49099;28.428;-16.488;2023-05-07T04:30:41;11.77;;;2.42;;
63008;SDS011;49099;28.428;-16.488;2023-05-07T04:33:08;12.90;;;2.80;;
63008;SDS011;49099;28.428;-16.488;2023-05-07T04:35:35;12.88;;;2.63;;
63008;SDS011;49099;28.428;-16.488;2023-05-07T04:38:02;13.07;;;2.35;;
63008;SDS011;49099;28.428;-16.488;2023-05-07T04:40:30;13.23;;;2.75;;
63008;SDS011;49099;28.428;-16.488;2023-05-07T04:42:57;11.38;;;2.90;;
63008;SDS011;49099;28.428;-16.488;2023-05-07T04:45:24;9.98;;;2.30;;
63008;SDS011;49099;28.428;-16.488;2023-05-07T04:47:51;13.05;;;2.72;;
63008;SDS011;49099;28.428;-16.488;2023-05-07T04:50:18;17.80;;;3.35;;
63008;SDS011;49099;28.428;-16.488;2023-05-07T04:52:46;13.35;;;2.90;;
63008;SDS011;49099;28.428;-16.488;2023-05-07T04:55:13;12.90;;;2.80;;
63008;SDS011;49099;28.428;-16.488;2023-05-07T04:57:41;11.60;;;2.83;;
63008;SDS011;49099;28.428;-16.488;2023-05-07T05:00:08;13.80;;;3.17;;
63008;SDS011;49099;28.428;-16.488;2023-05-07T05:02:36;14.50;;;3.50;;
63008;SDS011;49099;28.428;-16.488;2023-05-07T05:05:04;16.27;;;3.45;;
63008;SDS011;49099;28.428;-16.488;2023-05-07T05:07:31;22.88;;;3.70;;
63008;SDS011;49099;28.428;-16.488;2023-05-07T05:09:59;21.23;;;3.72;;
63008;SDS011;49099;28.428;-16.488;2023-05-07T05:12:26;16.40;;;3.70;;
63008;SDS011;49099;28.428;-16.488;2023-05-07T05:14:54;15.65;;;3.60;;
63008;SDS011;49099;28.428;-16.488;2023-05-07T05:17:21;23.48;;;4.82;;
63008;SDS011;49099;28.428;-16.488;2023-05-07T05:19:48;23.02;;;4.97;;
63008;SDS011;49099;28.428;-16.488;2023-05-07T05:22:16;17.67;;;4.38;;
63008;SDS011;49099;28.428;-16.488;2023-05-07T05:24:43;18.80;;;3.97;;
63008;SDS011;49099;28.428;-16.488;2023-05-07T05:27:11;15.85;;;3.53;;
63008;SDS011;49099;28.428;-16.488;2023-05-07T05:29:38;18.50;;;3.80;;
63008;SDS011;49099;28.428;-16.488;2023-05-07T05:32:05;14.93;;;3.50;;
63008;SDS011;49099;28.428;-16.488;2023-05-07T05:34:32;16.45;;;3.38;;
63008;SDS011;49099;28.428;-16.488;2023-05-07T05:36:59;14.60;;;3.40;;
63008;SDS011;49099;28.428;-16.488;2023-05-07T05:39:27;17.55;;;3.10;;
63008;SDS011;49099;28.428;-16.488;2023-05-07T05:41:54;17.45;;;3.42;;
63008;SDS011;49099;28.428;-16.488;2023-05-07T05:44:21;12.10;;;3.00;;
63008;SDS011;49099;28.428;-16.488;2023-05-07T05:46:48;18.17;;;3.35;;
63008;SDS011;49099;28.428;-16.488;2023-05-07T05:49:21;16.58;;;3.22;;
63008;SDS011;49099;28.428;-16.488;2023-05-07T05:51:48;19.90;;;3.50;;
63008;SDS011;49099;28.428;-16.488;2023-05-07T05:54:15;15.00;;;3.20;;
63008;SDS011;49099;28.428;-16.488;2023-05-07T05:56:42;19.15;;;3.70;;
63008;SDS011;49099;28.428;-16.488;2023-05-07T05:59:10;15.40;;;3.45;;
63008;SDS011;49099;28.428;-16.488;2023-05-07T06:01:37;13.18;;;3.03;;
63008;SDS011;49099;28.428;-16.488;2023-05-07T06:04:05;20.45;;;3.05;;
63008;SDS011;49099;28.428;-16.488;2023-05-07T06:06:32;10.48;;;2.67;;
63008;SDS011;49099;28.428;-16.488;2023-05-07T06:08:59;18.13;;;3.30;;
63008;SDS011;49099;28.428;-16.488;2023-05-07T06:11:26;16.10;;;3.05;;
63008;SDS011;49099;28.428;-16.488;2023-05-07T06:13:53;16.35;;;3.58;;
63008;SDS011;49099;28.428;-16.488;2023-05-07T06:16:21;15.70;;;3.17;;
63008;SDS011;49099;28.428;-16.488;2023-05-07T06:18:48;14.45;;;2.65;;
63008;SDS011;49099;28.428;-16.488;2023-05-07T06:21:15;14.32;;;3.08;;
63008;SDS011;49099;28.428;-16.488;2023-05-07T06:23:43;16.48;;;3.30;;
63008;SDS011;49099;28.428;-16.488;2023-05-07T06:26:10;18.00;;;3.20;;
63008;SDS011;49099;28.428;-16.488;2023-05-07T06:28:37;16.00;;;3.22;;
63008;SDS011;49099;28.428;-16.488;2023-05-07T06:31:17;17.38;;;3.13;;
63008;SDS011;49099;28.428;-16.488;2023-05-07T06:33:47;19.52;;;3.33;;
63008;SDS011;49099;28.428;-16.488;2023-05-07T06:36:15;21.58;;;3.75;;
63008;SDS011;49099;28.428;-16.488;2023-05-07T06:38:42;22.52;;;3.10;;
63008;SDS011;49099;28.428;-16.488;2023-05-07T06:41:09;15.80;;;3.17;;
63008;SDS011;49099;28.428;-16.488;2023-05-07T06:43:36;15.07;;;3.10;;
63008;SDS011;49099;28.428;-16.488;2023-05-07T06:46:03;11.70;;;2.90;;
63008;SDS011;49099;28.428;-16.488;2023-05-07T06:48:30;13.82;;;2.92;;
63008;SDS011;49099;28.428;-16.488;2023-05-07T06:50:57;16.00;;;3.13;;
63008;SDS011;49099;28.428;-16.488;2023-05-07T06:53:25;12.10;;;2.70;;
63008;SDS011;49099;28.428;-16.488;2023-05-07T06:55:52;14.45;;;2.85;;
63008;SDS011;49099;28.428;-16.488;2023-05-07T06:58:21;12.75;;;2.88;;
63008;SDS011;49099;28.428;-16.488;2023-05-07T07:00:48;13.25;;;2.08;;
63008;SDS011;49099;28.428;-16.488;2023-05-07T07:03:15;10.32;;;2.05;;
63008;SDS011;49099;28.428;-16.488;2023-05-07T07:05:43;10.52;;;2.40;;
63008;SDS011;49099;28.428;-16.488;2023-05-07T07:08:10;7.80;;;2.10;;
63008;SDS011;49099;28.428;-16.488;2023-05-07T07:10:37;12.10;;;2.65;;
63008;SDS011;49099;28.428;-16.488;2023-05-07T07:13:04;13.02;;;2.40;;
63008;SDS011;49099;28.428;-16.488;2023-05-07T07:15:31;9.77;;;2.85;;
63008;SDS011;49099;28.428;-16.488;2023-05-07T07:17:59;18.65;;;2.47;;
63008;SDS011;49099;28.428;-16.488;2023-05-07T07:20:26;9.63;;;2.67;;
63008;SDS011;49099;28.428;-16.488;2023-05-07T07:22:53;11.98;;;2.60;;
63008;SDS011;49099;28.428;-16.488;2023-05-07T07:25:20;11.02;;;2.47;;
63008;SDS011;49099;28.428;-16.488;2023-05-07T07:27:47;11.70;;;2.55;;
63008;SDS011;49099;28.428;-16.488;2023-05-07T07:30:14;13.10;;;2.50;;
63008;SDS011;49099;28.428;-16.488;2023-05-07T07:32:41;9.63;;;2.33;;
63008;SDS011;49099;28.428;-16.488;2023-05-07T07:35:09;10.55;;;2.33;;
63008;SDS011;49099;28.428;-16.488;2023-05-07T07:37:37;15.10;;;3.00;;
63008;SDS011;49099;28.428;-16.488;2023-05-07T07:40:04;13.27;;;2.40;;
63008;SDS011;49099;28.428;-16.488;2023-05-07T07:42:33;13.82;;;2.67;;
63008;SDS011;49099;28.428;-16.488;2023-05-07T07:45:00;12.25;;;2.45;;
63008;SDS011;49099;28.428;-16.488;2023-05-07T07:47:27;12.77;;;2.65;;
63008;SDS011;49099;28.428;-16.488;2023-05-07T07:49:54;34.97;;;3.38;;
63008;SDS011;49099;28.428;-16.488;2023-05-07T07:52:22;12.95;;;2.55;;
63008;SDS011;49099;28.428;-16.488;2023-05-07T07:54:49;9.95;;;2.25;;
63008;SDS011;49099;28.428;-16.488;2023-05-07T07:57:16;12.82;;;2.60;;
63008;SDS011;49099;28.428;-16.488;2023-05-07T07:59:43;14.73;;;3.17;;
63008;SDS011;49099;28.428;-16.488;2023-05-07T08:02:10;13.57;;;2.58;;
63008;SDS011;49099;28.428;-16.488;2023-05-07T08:04:37;10.32;;;2.92;;
63008;SDS011;49099;28.428;-16.488;2023-05-07T08:07:04;11.77;;;2.67;;
63008;SDS011;49099;28.428;-16.488;2023-05-07T08:09:32;12.02;;;2.70;;
63008;SDS011;49099;28.428;-16.488;2023-05-07T08:11:59;15.05;;;3.10;;
63008;SDS011;49099;28.428;-16.488;2023-05-07T08:14:27;22.45;;;4.13;;
63008;SDS011;49099;28.428;-16.488;2023-05-07T08:16:54;17.92;;;3.45;;
63008;SDS011;49099;28.428;-16.488;2023-05-07T08:19:22;21.45;;;3.88;;
63008;SDS011;49099;28.428;-16.488;2023-05-07T08:21:49;21.92;;;4.10;;
63008;SDS011;49099;28.428;-16.488;2023-05-07T08:24:17;22.42;;;4.70;;
63008;SDS011;49099;28.428;-16.488;2023-05-07T08:26:44;23.10;;;4.60;;
63008;SDS011;49099;28.428;-16.488;2023-05-07T08:29:13;24.73;;;4.57;;
63008;SDS011;49099;28.428;-16.488;2023-05-07T08:31:40;25.15;;;3.97;;
63008;SDS011;49099;28.428;-16.488;2023-05-07T08:34:07;19.48;;;4.32;;
63008;SDS011;49099;28.428;-16.488;2023-05-07T08:36:35;20.83;;;3.95;;
63008;SDS011;49099;28.428;-16.488;2023-05-07T08:39:02;29.23;;;4.50;;
63008;SDS011;49099;28.428;-16.488;2023-05-07T08:41:30;21.90;;;4.75;;
63008;SDS011;49099;28.428;-16.488;2023-05-07T08:43:57;22.35;;;4.25;;
63008;SDS011;49099;28.428;-16.488;2023-05-07T08:46:30;18.83;;;4.03;;
63008;SDS011;49099;28.428;-16.488;2023-05-07T08:48:58;35.22;;;5.10;;
63008;SDS011;49099;28.428;-16.488;2023-05-07T08:51:26;28.63;;;5.20;;
63008;SDS011;49099;28.428;-16.488;2023-05-07T08:53:53;26.73;;;4.75;;
63008;SDS011;49099;28.428;-16.488;2023-05-07T08:56:21;24.58;;;4.43;;
63008;SDS011;49099;28.428;-16.488;2023-05-07T08:58:48;23.05;;;4.82;;
63008;SDS011;49099;28.428;-16.488;2023-05-07T09:01:16;20.17;;;4.68;;
63008;SDS011;49099;28.428;-16.488;2023-05-07T09:03:44;22.40;;;4.43;;
63008;SDS011;49099;28.428;-16.488;2023-05-07T09:06:12;28.40;;;4.57;;
63008;SDS011;49099;28.428;-16.488;2023-05-07T09:08:39;22.65;;;4.45;;
63008;SDS011;49099;28.428;-16.488;2023-05-07T09:11:06;27.20;;;4.75;;
63008;SDS011;49099;28.428;-16.488;2023-05-07T09:13:33;28.95;;;4.80;;
63008;SDS011;49099;28.428;-16.488;2023-05-07T09:16:09;20.40;;;4.28;;
63008;SDS011;49099;28.428;-16.488;2023-05-07T09:18:48;25.63;;;4.65;;
63008;SDS011;49099;28.428;-16.488;2023-05-07T09:21:18;27.30;;;4.18;;
63008;SDS011;49099;28.428;-16.488;2023-05-07T09:23:53;24.73;;;4.40;;
63008;SDS011;49099;28.428;-16.488;2023-05-07T09:26:22;26.15;;;4.88;;
63008;SDS011;49099;28.428;-16.488;2023-05-07T09:28:49;26.70;;;4.78;;
63008;SDS011;49099;28.428;-16.488;2023-05-07T09:31:17;25.85;;;4.65;;
63008;SDS011;49099;28.428;-16.488;2023-05-07T09:33:46;25.52;;;4.70;;
63008;SDS011;49099;28.428;-16.488;2023-05-07T09:36:13;24.30;;;4.93;;
63008;SDS011;49099;28.428;-16.488;2023-05-07T09:38:41;24.38;;;4.07;;
63008;SDS011;49099;28.428;-16.488;2023-05-07T09:41:09;25.27;;;4.65;;
63008;SDS011;49099;28.428;-16.488;2023-05-07T09:43:39;29.50;;;4.95;;
63008;SDS011;49099;28.428;-16.488;2023-05-07T09:46:08;23.95;;;4.82;;
63008;SDS011;49099;28.428;-16.488;2023-05-07T09:48:41;18.17;;;3.97;;
63008;SDS011;49099;28.428;-16.488;2023-05-07T09:51:55;25.73;;;4.40;;
63008;SDS011;49099;28.428;-16.488;2023-05-07T09:54:06;24.40;;;4.20;;
63008;SDS011;49099;28.428;-16.488;2023-05-07T09:56:33;24.05;;;4.53;;
63008;SDS011;49099;28.428;-16.488;2023-05-07T09:59:04;26.25;;;4.38;;
63008;SDS011;49099;28.428;-16.488;2023-05-07T10:01:33;27.98;;;4.70;;
63008;SDS011;49099;28.428;-16.488;2023-05-07T10:04:03;25.30;;;4.43;;
63008;SDS011;49099;28.428;-16.488;2023-05-07T10:06:30;24.05;;;4.30;;
63008;SDS011;49099;28.428;-16.488;2023-05-07T10:08:58;23.98;;;4.43;;
63008;SDS011;49099;28.428;-16.488;2023-05-07T10:11:25;24.48;;;4.32;;
63008;SDS011;49099;28.428;-16.488;2023-05-07T10:13:53;20.42;;;4.03;;
63008;SDS011;49099;28.428;-16.488;2023-05-07T10:16:20;21.67;;;4.53;;
63008;SDS011;49099;28.428;-16.488;2023-05-07T10:18:47;27.17;;;5.32;;
63008;SDS011;49099;28.428;-16.488;2023-05-07T10:21:20;23.50;;;4.78;;
63008;SDS011;49099;28.428;-16.488;2023-05-07T10:23:50;24.70;;;4.05;;
63008;SDS011;49099;28.428;-16.488;2023-05-07T10:26:22;24.90;;;4.60;;
63008;SDS011;49099;28.428;-16.488;2023-05-07T10:28:54;29.92;;;5.40;;
63008;SDS011;49099;28.428;-16.488;2023-05-07T10:34:16;25.48;;;4.72;;
63008;SDS011;49099;28.428;-16.488;2023-05-07T10:36:48;23.30;;;4.45;;
63008;SDS011;49099;28.428;-16.488;2023-05-07T10:39:19;22.17;;;4.78;;
63008;SDS011;49099;28.428;-16.488;2023-05-07T10:41:48;21.70;;;4.47;;
63008;SDS011;49099;28.428;-16.488;2023-05-07T10:44:24;19.63;;;4.38;;
63008;SDS011;49099;28.428;-16.488;2023-05-07T10:52:13;21.52;;;4.07;;
63008;SDS011;49099;28.428;-16.488;2023-05-07T10:54:45;22.60;;;3.78;;
63008;SDS011;49099;28.428;-16.488;2023-05-07T10:59:58;22.63;;;4.45;;
63008;SDS011;49099;28.428;-16.488;2023-05-07T11:05:28;22.52;;;4.60;;
63008;SDS011;49099;28.428;-16.488;2023-05-07T11:08:03;25.52;;;4.85;;
63008;SDS011;49099;28.428;-16.488;2023-05-07T11:10:50;22.50;;;4.05;;
63008;SDS011;49099;28.428;-16.488;2023-05-07T11:13:18;26.20;;;4.50;;
63008;SDS011;49099;28.428;-16.488;2023-05-07T11:16:16;24.70;;;4.38;;
63008;SDS011;49099;28.428;-16.488;2023-05-07T11:18:46;20.80;;;4.50;;
63008;SDS011;49099;28.428;-16.488;2023-05-07T11:24:08;19.33;;;3.95;;
63008;SDS011;49099;28.428;-16.488;2023-05-07T11:26:44;25.48;;;4.30;;
63008;SDS011;49099;28.428;-16.488;2023-05-07T11:29:16;28.42;;;4.30;;
63008;SDS011;49099;28.428;-16.488;2023-05-07T11:31:52;20.38;;;3.83;;
63008;SDS011;49099;28.428;-16.488;2023-05-07T11:34:21;20.83;;;4.38;;
63008;SDS011;49099;28.428;-16.488;2023-05-07T11:36:49;24.27;;;3.88;;
63008;SDS011;49099;28.428;-16.488;2023-05-07T11:39:23;23.95;;;5.07;;
63008;SDS011;49099;28.428;-16.488;2023-05-07T11:41:55;19.92;;;3.88;;
63008;SDS011;49099;28.428;-16.488;2023-05-07T11:44:22;25.02;;;4.30;;
63008;SDS011;49099;28.428;-16.488;2023-05-07T11:46:50;22.67;;;4.20;;
63008;SDS011;49099;28.428;-16.488;2023-05-07T11:49:17;20.33;;;4.53;;
63008;SDS011;49099;28.428;-16.488;2023-05-07T11:51:45;18.85;;;4.25;;
63008;SDS011;49099;28.428;-16.488;2023-05-07T11:54:15;25.20;;;4.43;;
63008;SDS011;49099;28.428;-16.488;2023-05-07T11:56:43;23.08;;;3.95;;
63008;SDS011;49099;28.428;-16.488;2023-05-07T11:59:11;22.95;;;4.10;;
63008;SDS011;49099;28.428;-16.488;2023-05-07T12:01:38;23.92;;;4.18;;
63008;SDS011;49099;28.428;-16.488;2023-05-07T12:04:06;30.52;;;4.38;;
63008;SDS011;49099;28.428;-16.488;2023-05-07T12:06:35;26.98;;;5.43;;
63008;SDS011;49099;28.428;-16.488;2023-05-07T12:09:04;23.05;;;4.43;;
63008;SDS011;49099;28.428;-16.488;2023-05-07T12:11:34;26.23;;;4.82;;
63008;SDS011;49099;28.428;-16.488;2023-05-07T12:14:01;21.13;;;4.18;;
63008;SDS011;49099;28.428;-16.488;2023-05-07T12:16:32;21.40;;;4.10;;
63008;SDS011;49099;28.428;-16.488;2023-05-07T12:19:00;23.92;;;3.80;;
63008;SDS011;49099;28.428;-16.488;2023-05-07T12:21:27;22.48;;;4.53;;
63008;SDS011;49099;28.428;-16.488;2023-05-07T12:23:55;26.33;;;4.18;;
63008;SDS011;49099;28.428;-16.488;2023-05-07T12:26:22;16.55;;;3.55;;
63008;SDS011;49099;28.428;-16.488;2023-05-07T12:28:50;24.42;;;4.18;;
63008;SDS011;49099;28.428;-16.488;2023-05-07T12:31:18;19.90;;;3.90;;
63008;SDS011;49099;28.428;-16.488;2023-05-07T12:33:45;23.50;;;4.32;;
63008;SDS011;49099;28.428;-16.488;2023-05-07T12:36:12;23.05;;;4.10;;
63008;SDS011;49099;28.428;-16.488;2023-05-07T12:38:40;22.15;;;4.05;;
63008;SDS011;49099;28.428;-16.488;2023-05-07T12:41:08;26.70;;;4.20;;
63008;SDS011;49099;28.428;-16.488;2023-05-07T12:43:37;18.45;;;3.58;;
63008;SDS011;49099;28.428;-16.488;2023-05-07T12:46:06;23.25;;;3.50;;
63008;SDS011;49099;28.428;-16.488;2023-05-07T12:48:38;18.95;;;3.85;;
63008;SDS011;49099;28.428;-16.488;2023-05-07T12:51:09;23.05;;;3.40;;
63008;SDS011;49099;28.428;-16.488;2023-05-07T12:53:42;17.92;;;3.60;;
63008;SDS011;49099;28.428;-16.488;2023-05-07T12:56:09;15.25;;;3.22;;
63008;SDS011;49099;28.428;-16.488;2023-05-07T12:58:36;23.13;;;4.15;;
63008;SDS011;49099;28.428;-16.488;2023-05-07T13:01:04;18.65;;;3.30;;
63008;SDS011;49099;28.428;-16.488;2023-05-07T13:03:33;20.48;;;3.53;;
63008;SDS011;49099;28.428;-16.488;2023-05-07T13:06:02;17.90;;;3.55;;
63008;SDS011;49099;28.428;-16.488;2023-05-07T13:08:35;19.20;;;3.67;;
63008;SDS011;49099;28.428;-16.488;2023-05-07T13:11:10;18.75;;;3.15;;
63008;SDS011;49099;28.428;-16.488;2023-05-07T13:13:39;19.23;;;3.53;;
63008;SDS011;49099;28.428;-16.488;2023-05-07T13:16:08;20.10;;;3.67;;
63008;SDS011;49099;28.428;-16.488;2023-05-07T13:18:37;20.90;;;3.60;;
63008;SDS011;49099;28.428;-16.488;2023-05-07T13:21:06;18.10;;;3.70;;
63008;SDS011;49099;28.428;-16.488;2023-05-07T13:23:33;18.95;;;3.50;;
63008;SDS011;49099;28.428;-16.488;2023-05-07T13:26:00;19.75;;;3.50;;
63008;SDS011;49099;28.428;-16.488;2023-05-07T13:28:34;13.95;;;3.05;;
63008;SDS011;49099;28.428;-16.488;2023-05-07T13:31:01;17.33;;;3.25;;
63008;SDS011;49099;28.428;-16.488;2023-05-07T13:33:28;15.75;;;3.05;;
63008;SDS011;49099;28.428;-16.488;2023-05-07T13:35:55;14.30;;;3.30;;
63008;SDS011;49099;28.428;-16.488;2023-05-07T13:38:23;17.65;;;3.70;;
63008;SDS011;49099;28.428;-16.488;2023-05-07T13:40:50;14.15;;;3.20;;
63008;SDS011;49099;28.428;-16.488;2023-05-07T13:43:17;17.00;;;3.60;;
63008;SDS011;49099;28.428;-16.488;2023-05-07T13:45:45;12.93;;;2.88;;
63008;SDS011;49099;28.428;-16.488;2023-05-07T13:48:12;17.67;;;3.60;;
63008;SDS011;49099;28.428;-16.488;2023-05-07T13:50:39;17.65;;;2.88;;
63008;SDS011;49099;28.428;-16.488;2023-05-07T13:53:07;16.40;;;3.70;;
63008;SDS011;49099;28.428;-16.488;2023-05-07T13:55:34;20.48;;;3.38;;
63008;SDS011;49099;28.428;-16.488;2023-05-07T13:58:02;16.92;;;3.15;;
63008;SDS011;49099;28.428;-16.488;2023-05-07T14:00:32;19.13;;;3.47;;
63008;SDS011;49099;28.428;-16.488;2023-05-07T14:02:59;15.93;;;3.35;;
63008;SDS011;49099;28.428;-16.488;2023-05-07T14:05:27;19.00;;;3.00;;
63008;SDS011;49099;28.428;-16.488;2023-05-07T14:07:57;13.70;;;2.90;;
63008;SDS011;49099;28.428;-16.488;2023-05-07T14:10:25;20.98;;;3.67;;
63008;SDS011;49099;28.428;-16.488;2023-05-07T14:12:52;18.70;;;3.33;;
63008;SDS011;49099;28.428;-16.488;2023-05-07T14:15:19;18.00;;;3.47;;
63008;SDS011;49099;28.428;-16.488;2023-05-07T14:17:47;12.88;;;3.30;;
63008;SDS011;49099;28.428;-16.488;2023-05-07T14:20:14;16.60;;;3.53;;
63008;SDS011;49099;28.428;-16.488;2023-05-07T14:22:41;12.13;;;3.20;;
63008;SDS011;49099;28.428;-16.488;2023-05-07T14:25:08;16.35;;;3.65;;
63008;SDS011;49099;28.428;-16.488;2023-05-07T14:27:40;12.80;;;3.00;;
63008;SDS011;49099;28.428;-16.488;2023-05-07T14:30:07;15.82;;;3.22;;